Time;durP1;ratioP1;P1;durP2;ratioP2;P2;SDS_P1;SDS_P2;PMS_P1;PMS_P2;Temp;Humidity;BMP_temperature;BMP_pressure;BME280_temperature;BME280_humidity;BME280_pressure;Samples;Min_cycle;Max_cycle;Signal;HPM_P1;HPM_P2
2022/09/17 00:00:32;;;;;;;34.30;5.82;;;;;;;11.47;100.00;100132.66;5062583;28;20187;-46
2022/09/17 00:02:58;;;;;;;34.00;5.82;;;;;;;11.51;100.00;100133.38;5031908;28;20740;-47
2022/09/17 00:05:24;;;;;;;35.13;5.85;;;;;;;11.58;100.00;100132.09;5032605;28;20184;-45
2022/09/17 00:07:51;;;;;;;27.55;6.22;;;;;;;11.60;100.00;100127.50;5037596;28;20206;-45
2022/09/17 00:10:18;;;;;;;34.30;6.50;;;;;;;11.57;100.00;100138.41;5034945;28;20277;-46
2022/09/17 00:12:44;;;;;;;27.60;5.50;;;;;;;11.59;100.00;100135.63;5030263;28;20661;-45
2022/09/17 00:15:10;;;;;;;40.03;6.43;;;;;;;11.59;100.00;100133.84;5049205;28;20183;-45
2022/09/17 00:17:35;;;;;;;26.30;5.18;;;;;;;11.59;100.00;100133.84;5045636;28;20210;-46
2022/09/17 00:20:01;;;;;;;30.77;5.50;;;;;;;11.69;100.00;100137.72;5040978;28;20188;-44
2022/09/17 00:22:27;;;;;;;26.75;5.05;;;;;;;11.70;100.00;100135.94;5039833;28;20529;-47
2022/09/17 00:24:52;;;;;;;30.42;6.03;;;;;;;11.76;100.00;100140.94;5045039;28;20235;-44
2022/09/17 00:27:18;;;;;;;40.63;6.65;;;;;;;11.79;100.00;100135.44;5043443;28;20177;-47
2022/09/17 00:29:43;;;;;;;34.53;5.80;;;;;;;11.77;100.00;100141.84;5041956;28;20270;-43
2022/09/17 00:32:09;;;;;;;27.95;4.82;;;;;;;11.80;100.00;100136.28;5040740;28;20188;-44
2022/09/17 00:34:34;;;;;;;30.40;5.15;;;;;;;11.82;100.00;100129.03;5034258;28;20672;-44
2022/09/17 00:37:00;;;;;;;35.90;5.40;;;;;;;11.85;100.00;100143.16;5035270;28;20187;-49
2022/09/17 00:39:25;;;;;;;33.30;5.40;;;;;;;11.81;100.00;100140.72;5039334;28;20245;-44
2022/09/17 00:41:51;;;;;;;29.55;5.82;;;;;;;11.86;100.00;100147.56;5038153;28;20538;-43
2022/09/17 00:44:52;;;;;;;29.10;5.05;;;;;;;11.83;100.00;100141.47;5035040;28;20217;-47
2022/09/17 00:47:22;;;;;;;28.70;5.20;;;;;;;11.84;100.00;100143.22;5039089;28;20187;-45
2022/09/17 00:49:56;;;;;;;25.17;4.65;;;;;;;11.83;100.00;100142.38;5041363;28;20225;-44
2022/09/17 00:52:28;;;;;;;27.92;4.95;;;;;;;11.89;100.00;100150.09;5034289;28;20654;-46
2022/09/17 00:55:05;;;;;;;27.60;4.13;;;;;;;11.89;100.00;100147.41;5035486;28;20253;-44
2022/09/17 00:57:31;;;;;;;26.95;5.20;;;;;;;11.88;100.00;100143.00;5039720;28;20747;-49
2022/09/17 00:59:57;;;;;;;27.25;5.78;;;;;;;11.89;100.00;100151.91;5036918;28;20181;-44
2022/09/17 01:02:23;;;;;;;28.05;5.47;;;;;;;11.95;100.00;100146.22;5041404;28;20221;-45
2022/09/17 01:04:50;;;;;;;23.58;5.13;;;;;;;12.02;100.00;100136.00;5037457;28;20187;-44
2022/09/17 01:07:43;;;;;;;31.75;5.00;;;;;;;11.98;100.00;100145.19;5037032;28;20171;-48
2022/09/17 01:10:39;;;;;;;30.73;4.93;;;;;;;12.01;100.00;100155.78;5037830;28;20294;-44
2022/09/17 01:13:23;;;;;;;21.25;4.55;;;;;;;11.96;100.00;100142.59;5037631;28;20194;-45
2022/09/17 01:16:08;;;;;;;32.25;5.85;;;;;;;11.93;100.00;100145.44;5040809;28;20183;-44
2022/09/17 01:18:59;;;;;;;27.23;5.25;;;;;;;11.95;100.00;100147.09;5037855;28;20636;-48
2022/09/17 01:21:45;;;;;;;26.38;5.43;;;;;;;11.91;100.00;100153.56;5033243;28;20653;-46
2022/09/17 01:24:45;;;;;;;23.40;4.63;;;;;;;11.95;100.00;100148.91;5040865;28;20182;-46
2022/09/17 01:27:24;;;;;;;26.25;4.60;;;;;;;11.95;100.00;100149.78;5038073;28;20184;-49
2022/09/17 01:29:58;;;;;;;34.40;4.72;;;;;;;11.92;100.00;100152.63;5037467;28;20213;-44
2022/09/17 01:33:02;;;;;;;28.45;4.40;;;;;;;11.92;nan;100165.19;5042073;28;20251;-43
2022/09/17 01:35:42;;;;;;;29.00;5.35;;;;;;;11.93;100.00;100148.13;5037596;28;20293;-44
2022/09/17 01:38:11;;;;;;;26.90;5.25;;;;;;;11.87;100.00;100154.69;5046004;28;20207;-44
2022/09/17 01:41:10;;;;;;;27.08;5.68;;;;;;;11.85;100.00;100158.38;5038676;28;20222;-51
2022/09/17 01:43:57;;;;;;;31.23;5.35;;;;;;;11.79;100.00;100161.41;5036678;28;20206;-45
2022/09/17 01:46:31;;;;;;;32.70;5.47;;;;;;;11.80;100.00;100158.63;5037349;28;20223;-43
2022/09/17 01:49:04;;;;;;;28.33;5.20;;;;;;;11.78;100.00;100156.97;5034953;28;20285;-51
2022/09/17 01:51:37;;;;;;;24.95;4.28;;;;;;;11.73;100.00;100157.22;5038283;28;20208;-44
2022/09/17 01:54:11;;;;;;;30.05;5.55;;;;;;;11.69;100.00;100148.47;5036871;28;20187;-45
2022/09/17 01:56:57;;;;;;;30.55;5.85;;;;;;;11.77;100.00;100157.94;5035720;28;20208;-44
2022/09/17 01:59:38;;;;;;;31.27;5.00;;;;;;;11.74;100.00;100159.84;5037201;28;20233;-46
2022/09/17 02:02:16;;;;;;;33.58;5.00;;;;;;;11.77;100.00;100157.94;5038747;28;20187;-50
2022/09/17 02:04:54;;;;;;;34.17;5.38;;;;;;;11.69;100.00;100161.03;5053644;28;20195;-44
2022/09/17 02:07:24;;;;;;;31.02;4.63;;;;;;;11.69;100.00;100171.75;5035928;28;20199;-51
2022/09/17 02:10:05;;;;;;;24.48;4.45;;;;;;;11.69;100.00;100163.72;5037575;28;20208;-47
2022/09/17 02:12:38;;;;;;;23.63;4.18;;;;;;;11.75;100.00;100164.25;5036581;28;20188;-45
2022/09/17 02:15:08;;;;;;;26.35;4.00;;;;;;;11.66;100.00;100159.38;5036837;28;20184;-45
2022/09/17 02:17:41;;;;;;;20.90;3.85;;;;;;;11.61;100.00;100153.41;5035333;28;20315;-49
2022/09/17 02:20:07;;;;;;;20.55;4.10;;;;;;;11.55;100.00;100159.94;5034876;28;20285;-50
2022/09/17 02:22:39;;;;;;;27.90;5.00;;;;;;;11.51;100.00;100162.88;5040045;28;20187;-44
2022/09/17 02:25:21;;;;;;;24.27;4.28;;;;;;;11.45;100.00;100158.69;5039555;28;20196;-45
2022/09/17 02:28:07;;;;;;;30.02;5.00;;;;;;;11.44;100.00;100158.78;5036968;28;20309;-45
2022/09/17 02:30:33;;;;;;;30.30;4.88;;;;;;;11.47;100.00;100158.63;5037555;28;20194;-44
2022/09/17 02:33:03;;;;;;;25.10;4.47;;;;;;;11.61;100.00;100164.13;5037972;28;20183;-42
2022/09/17 02:35:30;;;;;;;26.70;4.57;;;;;;;11.58;100.00;100158.06;5037170;28;20199;-42
2022/09/17 02:37:56;;;;;;;23.40;4.28;;;;;;;11.55;100.00;100162.63;5043504;28;20215;-42
2022/09/17 02:40:26;;;;;;;32.13;4.88;;;;;;;11.52;100.00;100162.81;5047775;28;20672;-40
2022/09/17 02:43:19;;;;;;;21.58;4.30;;;;;;;11.51;100.00;100157.50;5040709;28;20670;-42
2022/09/17 02:45:56;;;;;;;23.73;3.97;;;;;;;11.52;100.00;100168.16;5040410;28;20180;-42
2022/09/17 02:48:46;;;;;;;30.02;4.80;;;;;;;11.47;100.00;100156.78;5032861;28;20297;-43
2022/09/17 02:51:39;;;;;;;23.27;4.82;;;;;;;11.51;100.00;100157.50;5045898;28;20204;-42
2022/09/17 02:54:29;;;;;;;25.13;4.60;;;;;;;11.57;100.00;100156.28;5034900;28;20262;-42
2022/09/17 02:57:22;;;;;;;29.63;5.18;;;;;;;11.54;100.00;100150.19;5037585;28;20188;-43
2022/09/17 03:00:06;;;;;;;20.15;3.60;;;;;;;11.46;100.00;100149.72;5038669;28;20201;-42
2022/09/17 03:02:44;;;;;;;19.23;4.00;;;;;;;11.45;100.00;100155.16;5039912;28;20199;-43
2022/09/17 03:05:12;;;;;;;33.63;4.95;;;;;;;11.49;100.00;100160.25;5034519;28;20194;-43
2022/09/17 03:07:37;;;;;;;23.95;4.60;;;;;;;11.51;100.00;100155.69;5039709;28;20207;-42
2022/09/17 03:10:04;;;;;;;20.45;2.92;;;;;;;11.51;100.00;100154.81;5039783;28;20254;-41
2022/09/17 03:12:30;;;;;;;17.70;3.90;;;;;;;11.55;100.00;100154.59;5037874;28;20193;-44
2022/09/17 03:14:56;;;;;;;19.30;4.03;;;;;;;11.63;100.00;100153.28;5041515;28;20556;-43
2022/09/17 03:17:21;;;;;;;23.40;4.40;;;;;;;11.66;100.00;100139.72;5035866;28;20651;-42
2022/09/17 03:19:46;;;;;;;24.20;4.13;;;;;;;11.53;99.95;100147.56;5034609;28;20183;-42
2022/09/17 03:22:12;;;;;;;18.75;3.30;;;;;;;11.47;100.00;100146.06;5033233;28;20199;-44
2022/09/17 03:24:38;;;;;;;21.45;3.63;;;;;;;11.46;100.00;100149.72;5038432;28;20226;-44
2022/09/17 03:27:04;;;;;;;18.88;4.18;;;;;;;11.44;100.00;100159.66;5044809;28;20634;-42
2022/09/17 03:29:29;;;;;;;24.15;3.78;;;;;;;11.37;100.00;100150.19;5039078;28;20212;-42
2022/09/17 03:31:55;;;;;;;20.25;4.00;;;;;;;11.37;100.00;100160.94;5040075;28;20263;-43
2022/09/17 03:34:20;;;;;;;17.65;3.53;;;;;;;11.33;100.00;100154.84;5038358;28;20670;-44
2022/09/17 03:36:46;;;;;;;24.15;4.32;;;;;;;11.37;100.00;100154.69;5035385;28;20202;-42
2022/09/17 03:39:12;;;;;;;26.83;3.63;;;;;;;11.27;100.00;100151.63;5043959;28;20219;-42
2022/09/17 03:41:38;;;;;;;21.02;3.97;;;;;;;11.25;100.00;100149.00;5038546;28;20176;-42
2022/09/17 03:44:04;;;;;;;17.70;3.97;;;;;;;11.29;100.00;100147.03;5037874;28;20575;-43
2022/09/17 03:46:30;;;;;;;23.00;4.43;;;;;;;11.25;100.00;100143.66;5038486;28;20195;-42
2022/09/17 03:48:55;;;;;;;22.88;4.15;;;;;;;11.32;100.00;100137.00;5035874;28;20519;-42
2022/09/17 03:51:21;;;;;;;21.90;3.92;;;;;;;11.33;100.00;100146.81;5031487;28;20286;-41
2022/09/17 03:53:46;;;;;;;19.88;4.07;;;;;;;11.30;100.00;100144.28;5036995;28;20198;-45
2022/09/17 03:56:12;;;;;;;22.23;3.90;;;;;;;11.28;100.00;100143.50;5040498;28;20670;-42
2022/09/17 03:58:37;;;;;;;26.85;5.15;;;;;;;11.31;100.00;100143.31;5039172;28;20206;-42
2022/09/17 04:01:03;;;;;;;19.58;4.22;;;;;;;11.23;100.00;100142.00;5041695;28;20579;-42
2022/09/17 04:03:29;;;;;;;20.80;4.07;;;;;;;11.14;100.00;100154.91;5038876;28;21169;-44
2022/09/17 04:05:55;;;;;;;22.40;4.47;;;;;;;11.16;100.00;100143.28;5041434;28;20266;-43
2022/09/17 04:08:21;;;;;;;30.52;5.78;;;;;;;11.17;100.00;100147.66;5046464;28;20213;-42
2022/09/17 04:10:47;;;;;;;20.77;4.65;;;;;;;11.11;100.00;100155.09;5035656;28;20295;-43
2022/09/17 04:13:14;;;;;;;24.90;4.70;;;;;;;11.10;100.00;100153.34;5032423;28;20276;-43
2022/09/17 04:15:41;;;;;;;26.52;4.25;;;;;;;11.07;100.00;100169.59;5033868;28;20184;-44
2022/09/17 04:18:06;;;;;;;23.83;3.90;;;;;;;11.01;100.00;100177.09;5044267;28;20199;-42
2022/09/17 04:20:32;;;;;;;23.70;4.00;;;;;;;10.85;100.00;100163.59;5039171;28;20191;-43
2022/09/17 04:22:57;;;;;;;17.42;3.95;;;;;;;10.73;99.93;100170.41;5034375;28;20233;-42
2022/09/17 04:25:23;;;;;;;29.05;4.63;;;;;;;10.80;99.75;100179.00;5035356;28;20206;-42
2022/09/17 04:27:49;;;;;;;22.35;4.18;;;;;;;10.76;99.84;100167.59;5035878;28;20745;-44
2022/09/17 04:30:15;;;;;;;18.08;4.13;;;;;;;10.71;99.80;100177.66;5035027;28;20655;-44
2022/09/17 04:32:42;;;;;;;22.77;4.70;;;;;;;10.57;99.83;100174.81;5032894;28;20195;-42
2022/09/17 04:35:08;;;;;;;33.25;4.80;;;;;;;10.55;99.90;100174.00;5037372;28;20199;-43
2022/09/17 04:37:34;;;;;;;17.27;3.83;;;;;;;10.60;100.00;100172.81;5033371;28;20215;-43
2022/09/17 04:39:59;;;;;;;17.50;3.83;;;;;;;10.58;100.00;100180.06;5039149;28;20169;-43
2022/09/17 04:42:25;;;;;;;22.73;4.35;;;;;;;10.47;99.98;100185.06;5037788;28;20176;-45
2022/09/17 04:44:50;;;;;;;26.95;4.05;;;;;;;10.40;100.00;100184.50;5035756;28;20222;-43
2022/09/17 04:47:16;;;;;;;21.55;3.95;;;;;;;10.33;100.00;100188.44;5035370;28;20254;-43
2022/09/17 04:49:41;;;;;;;21.80;3.70;;;;;;;10.34;100.00;100189.28;5036781;28;20286;-43
2022/09/17 04:52:07;;;;;;;22.67;3.92;;;;;;;10.27;100.00;100175.28;5036556;28;20184;-43
2022/09/17 04:54:32;;;;;;;29.10;5.03;;;;;;;10.39;100.00;100179.25;5036564;28;20187;-43
2022/09/17 04:56:59;;;;;;;19.15;3.35;;;;;;;10.32;100.00;100176.00;5044363;28;20187;-43
2022/09/17 04:59:24;;;;;;;20.08;4.32;;;;;;;10.17;100.00;100177.56;5036197;28;20239;-43
2022/09/17 05:01:50;;;;;;;20.42;3.80;;;;;;;10.03;100.00;100170.16;5034334;28;20183;-44
2022/09/17 05:04:15;;;;;;;19.67;4.55;;;;;;;9.98;100.00;100179.34;5032891;28;20525;-44
2022/09/17 05:06:41;;;;;;;18.98;3.10;;;;;;;10.01;100.00;100166.66;5042673;28;20638;-44
2022/09/17 05:09:06;;;;;;;22.00;3.70;;;;;;;10.08;100.00;100164.59;5039802;28;20255;-43
2022/09/17 05:11:32;;;;;;;22.50;4.65;;;;;;;10.05;100.00;100162.06;5040628;28;20199;-46
2022/09/17 05:13:57;;;;;;;20.52;4.03;;;;;;;10.03;100.00;100167.47;5034762;28;20194;-49
2022/09/17 05:16:23;;;;;;;25.10;4.30;;;;;;;10.00;100.00;100169.44;5032708;28;20527;-48
2022/09/17 05:18:50;;;;;;;18.65;3.53;;;;;;;10.08;100.00;100172.63;5045394;28;20223;-46
2022/09/17 05:21:16;;;;;;;21.83;3.50;;;;;;;10.02;100.00;100173.78;5030193;28;20172;-47
2022/09/17 05:23:42;;;;;;;20.30;3.80;;;;;;;10.01;100.00;100180.03;5036287;28;20179;-47
2022/09/17 05:26:08;;;;;;;16.05;3.60;;;;;;;10.04;100.00;100190.63;5049894;28;20175;-48
2022/09/17 05:28:33;;;;;;;21.63;3.95;;;;;;;10.04;100.00;100193.31;5035953;28;20200;-44
2022/09/17 05:31:00;;;;;;;27.10;4.07;;;;;;;10.02;100.00;100184.47;5030090;28;20180;-43
2022/09/17 05:33:26;;;;;;;29.55;4.35;;;;;;;9.95;100.00;100184.81;5029586;28;20195;-47
2022/09/17 05:35:52;;;;;;;22.90;4.55;;;;;;;9.96;100.00;100184.75;5035896;28;20262;-45
2022/09/17 05:38:17;;;;;;;23.85;3.90;;;;;;;9.98;100.00;100187.38;5049854;28;20563;-44
2022/09/17 05:40:44;;;;;;;21.05;3.88;;;;;;;10.06;100.00;100186.06;5049625;28;20156;-45
2022/09/17 05:43:10;;;;;;;22.50;4.00;;;;;;;10.05;100.00;100188.81;5032768;28;20179;-44
2022/09/17 05:45:36;;;;;;;24.38;3.88;;;;;;;10.11;100.00;100196.56;5030153;28;20194;-44
2022/09/17 05:48:03;;;;;;;19.05;3.67;;;;;;;10.14;100.00;100192.88;5029759;28;20191;-45
2022/09/17 05:50:30;;;;;;;20.20;3.65;;;;;;;10.22;100.00;100196.94;5029511;28;20250;-49
2022/09/17 05:52:55;;;;;;;28.65;3.58;;;;;;;10.19;100.00;100205.13;5029996;28;20179;-47
2022/09/17 05:55:22;;;;;;;25.60;3.70;;;;;;;10.22;100.00;100198.75;5029846;28;20588;-47
2022/09/17 05:57:48;;;;;;;18.23;3.35;;;;;;;10.19;100.00;100197.09;5052057;28;20235;-44
2022/09/17 06:00:15;;;;;;;26.40;3.95;;;;;;;10.22;100.00;100199.59;5045862;28;20184;-44
2022/09/17 06:02:41;;;;;;;25.70;3.88;;;;;;;10.26;100.00;100197.66;5029858;28;20176;-50
2022/09/17 06:05:07;;;;;;;24.20;4.53;;;;;;;10.23;100.00;100204.03;5037659;28;20183;-45
2022/09/17 06:07:36;;;;;;;25.73;3.65;;;;;;;10.22;100.00;100199.59;5030000;28;20264;-43
2022/09/17 06:10:04;;;;;;;18.88;3.58;;;;;;;10.22;100.00;100201.41;5030280;28;20227;-45
2022/09/17 06:12:30;;;;;;;21.38;4.13;;;;;;;10.24;100.00;100208.44;5033553;28;20172;-49
2022/09/17 06:14:55;;;;;;;23.98;4.22;;;;;;;10.27;100.00;100213.63;5041476;28;20234;-46
2022/09/17 06:17:21;;;;;;;18.05;3.97;;;;;;;10.28;100.00;100207.34;5047429;28;20548;-42
2022/09/17 06:19:46;;;;;;;20.95;3.58;;;;;;;10.22;100.00;100213.00;5048014;28;20291;-47
2022/09/17 06:22:11;;;;;;;18.48;3.92;;;;;;;10.25;100.00;100215.50;5040211;28;20560;-42
2022/09/17 06:24:37;;;;;;;23.73;4.07;;;;;;;10.23;100.00;100216.53;5058550;28;20187;-44
2022/09/17 06:27:02;;;;;;;21.50;3.75;;;;;;;10.15;100.00;100214.22;5043435;28;20210;-44
2022/09/17 06:29:28;;;;;;;22.50;3.75;;;;;;;10.21;100.00;100210.38;5042083;28;20321;-43
2022/09/17 06:31:54;;;;;;;23.23;3.72;;;;;;;10.17;100.00;100212.34;5033007;28;20187;-44
2022/09/17 06:34:19;;;;;;;18.45;3.72;;;;;;;10.25;100.00;100212.84;5044892;28;20748;-43
2022/09/17 06:36:45;;;;;;;18.58;3.60;;;;;;;10.26;100.00;100225.28;5039977;28;20408;-42
2022/09/17 06:39:10;;;;;;;23.80;3.90;;;;;;;10.26;100.00;100219.94;5047588;28;20214;-41
2022/09/17 06:41:37;;;;;;;21.55;4.10;;;;;;;10.26;100.00;100219.94;5044035;28;20198;-43
2022/09/17 06:44:03;;;;;;;17.50;3.88;;;;;;;10.38;100.00;100223.00;5046414;28;20264;-42
2022/09/17 06:46:28;;;;;;;24.33;4.07;;;;;;;10.73;100.00;100229.34;5045767;28;20183;-43
2022/09/17 06:48:54;;;;;;;16.95;3.38;;;;;;;11.17;99.66;100228.97;5037627;28;20534;-45
2022/09/17 06:51:21;;;;;;;15.75;3.70;;;;;;;11.32;98.45;100219.28;5039201;28;20227;-44
2022/09/17 06:53:47;;;;;;;23.00;6.25;;;;;;;11.26;97.85;100225.84;5041193;28;20274;-45
2022/09/17 06:56:13;;;;;;;20.73;5.32;;;;;;;11.26;97.73;100223.16;5043157;28;20192;-45
2022/09/17 06:58:42;;;;;;;17.88;4.40;;;;;;;11.31;97.51;100221.09;5046114;28;20426;-45
2022/09/17 07:01:10;;;;;;;22.83;4.30;;;;;;;11.43;97.52;100229.47;5032236;28;20275;-45
2022/09/17 07:03:36;;;;;;;22.08;4.65;;;;;;;11.44;97.50;100224.03;5039400;28;20380;-43
2022/09/17 07:06:03;;;;;;;22.20;4.15;;;;;;;11.54;97.17;100227.09;5042946;28;20187;-41
2022/09/17 07:08:31;;;;;;;20.45;4.70;;;;;;;11.60;97.00;100228.59;5037386;28;20293;-41
2022/09/17 07:10:57;;;;;;;16.98;4.20;;;;;;;11.67;96.98;100224.63;5042627;28;20250;-42
2022/09/17 07:13:23;;;;;;;19.05;3.40;;;;;;;11.73;96.80;100218.94;5047941;28;20198;-43
2022/09/17 07:15:54;;;;;;;16.88;3.20;;;;;;;11.95;96.57;100222.25;5035655;28;20188;-44
2022/09/17 07:18:19;;;;;;;18.20;3.67;;;;;;;12.38;96.09;100224.44;5040709;28;20208;-43
2022/09/17 07:20:52;;;;;;;15.55;3.33;;;;;;;12.62;94.67;100216.81;5041749;28;20649;-44
2022/09/17 07:23:18;;;;;;;18.83;3.50;;;;;;;12.77;93.43;100217.78;5038822;28;20187;-44
2022/09/17 07:25:43;;;;;;;19.42;3.53;;;;;;;12.68;92.79;100220.97;5056462;28;20718;-43
2022/09/17 07:28:09;;;;;;;17.85;3.17;;;;;;;13.04;92.34;100217.97;5046815;28;20294;-43
2022/09/17 07:30:34;;;;;;;19.55;3.67;;;;;;;12.90;91.92;100223.28;5039624;28;20311;-46
2022/09/17 07:33:01;;;;;;;16.00;3.03;;;;;;;12.80;91.67;100219.41;5036776;28;20188;-44
2022/09/17 07:35:26;;;;;;;15.20;3.50;;;;;;;13.42;91.10;100222.09;5039214;28;20655;-42
2022/09/17 07:37:52;;;;;;;20.13;3.65;;;;;;;13.16;89.88;100216.38;5039347;28;20217;-43
2022/09/17 07:40:18;;;;;;;18.67;3.40;;;;;;;12.96;89.30;100212.19;5039261;28;20236;-42
2022/09/17 07:42:43;;;;;;;11.82;3.03;;;;;;;13.02;89.61;100213.66;5043852;28;20219;-41
2022/09/17 07:45:09;;;;;;;14.70;3.05;;;;;;;12.97;90.02;100209.41;5037716;28;20317;-43
2022/09/17 07:47:39;;;;;;;13.98;2.97;;;;;;;13.17;90.27;100216.31;5057755;28;20211;-42
2022/09/17 07:50:05;;;;;;;19.35;2.70;;;;;;;13.51;89.08;100208.06;5040058;28;20196;-44
2022/09/17 07:52:31;;;;;;;19.33;3.35;;;;;;;13.55;88.26;100207.78;5039326;28;20184;-41
2022/09/17 07:54:56;;;;;;;14.25;3.13;;;;;;;13.65;88.06;100207.25;5040129;28;20190;-42
2022/09/17 07:57:22;;;;;;;21.35;2.80;;;;;;;14.09;87.36;100201.78;5044359;28;20192;-40
2022/09/17 07:59:47;;;;;;;18.48;2.80;;;;;;;13.82;86.97;100199.00;5043161;28;20278;-43
2022/09/17 08:02:13;;;;;;;12.23;2.90;;;;;;;13.82;87.23;100209.78;5038962;28;20199;-42
2022/09/17 08:04:41;;;;;;;17.35;3.17;;;;;;;13.78;87.60;100205.53;5040062;28;20581;-41
2022/09/17 08:07:10;;;;;;;16.15;2.88;;;;;;;13.56;87.09;100204.16;5039482;28;20218;-43
2022/09/17 08:09:36;;;;;;;22.35;3.63;;;;;;;13.13;87.66;100209.38;5038127;28;20196;-41
2022/09/17 08:12:01;;;;;;;20.02;4.43;;;;;;;13.15;88.92;100218.22;5045836;28;20298;-42
2022/09/17 08:14:27;;;;;;;12.10;3.00;;;;;;;13.03;89.29;100200.13;5037826;28;20329;-44
2022/09/17 08:16:52;;;;;;;15.25;3.05;;;;;;;13.10;89.99;100204.19;5036296;28;20192;-43
2022/09/17 08:19:17;;;;;;;13.52;2.67;;;;;;;13.27;90.51;100202.31;5038043;28;20214;-44
2022/09/17 08:21:43;;;;;;;11.85;2.58;;;;;;;13.26;90.97;100208.66;5036329;28;20184;-42
2022/09/17 08:24:08;;;;;;;16.42;3.38;;;;;;;13.29;90.94;100208.50;5038351;28;20187;-44
2022/09/17 08:26:34;;;;;;;14.80;3.00;;;;;;;13.13;91.30;100204.00;5037420;28;20180;-46
2022/09/17 08:29:01;;;;;;;19.02;3.30;;;;;;;13.16;90.83;100198.44;5049637;28;20576;-44
2022/09/17 08:31:28;;;;;;;14.55;2.80;;;;;;;13.08;90.86;100198.03;5035955;28;20257;-48
2022/09/17 08:33:54;;;;;;;13.88;2.90;;;;;;;13.07;91.06;100195.41;5045327;28;20179;-50
2022/09/17 08:36:21;;;;;;;16.73;3.70;;;;;;;13.18;90.61;100198.34;5041420;28;20195;-48
2022/09/17 08:38:51;;;;;;;14.27;3.50;;;;;;;13.36;90.52;100194.59;5039114;28;20207;-49
2022/09/17 08:41:41;;;;;;;16.20;3.13;;;;;;;13.60;89.87;100188.69;5040261;28;20207;-47
2022/09/17 08:44:29;;;;;;;13.52;2.63;;;;;;;14.63;88.13;100182.22;5041785;28;20179;-47
2022/09/17 08:47:05;;;;;;;13.38;2.85;;;;;;;14.09;85.94;100176.69;5048108;28;20716;-49
2022/09/17 08:49:47;;;;;;;11.00;2.88;;;;;;;14.11;86.41;100186.41;5043040;28;20214;-47
2022/09/17 08:52:27;;;;;;;16.00;3.25;;;;;;;14.06;85.87;100180.44;5036294;28;20206;-46
2022/09/17 08:55:02;;;;;;;11.20;2.70;;;;;;;13.84;85.86;100190.81;5042431;28;20204;-45
2022/09/17 08:57:58;;;;;;;13.95;2.95;;;;;;;14.12;85.95;100189.97;5039980;28;20202;-46
2022/09/17 09:00:24;;;;;;;11.48;2.17;;;;;;;14.00;85.58;100192.47;5038214;28;20183;-49
2022/09/17 09:03:15;;;;;;;15.75;2.55;;;;;;;14.11;85.19;100190.94;5035451;28;20183;-44
2022/09/17 09:05:51;;;;;;;10.55;2.55;;;;;;;14.08;85.35;100194.69;5037783;28;20263;-48
2022/09/17 09:08:42;;;;;;;10.35;2.20;;;;;;;13.92;85.59;100197.47;5033071;28;20207;-48
2022/09/17 09:11:17;;;;;;;15.77;2.60;;;;;;;13.99;85.37;100197.94;5035445;28;20281;-46
2022/09/17 09:14:08;;;;;;;11.90;2.85;;;;;;;14.11;85.08;100202.56;5037745;28;20605;-47
2022/09/17 09:16:39;;;;;;;13.85;2.58;;;;;;;14.13;85.12;100203.34;5029558;28;20207;-48
2022/09/17 09:19:19;;;;;;;16.55;3.53;;;;;;;13.96;84.81;100195.44;5039255;28;20685;-47
2022/09/17 09:22:00;;;;;;;12.95;2.33;;;;;;;14.13;85.20;100208.72;5035225;28;20237;-45
2022/09/17 09:24:44;;;;;;;12.20;3.03;;;;;;;14.20;84.58;100207.38;5037098;28;20187;-47
2022/09/17 09:27:16;;;;;;;12.90;2.58;;;;;;;14.11;84.44;100213.34;5032719;28;20560;-47
2022/09/17 09:30:01;;;;;;;12.95;3.15;;;;;;;14.10;83.93;100203.53;5035816;28;20184;-45
2022/09/17 09:32:41;;;;;;;16.85;3.90;;;;;;;13.96;85.06;100206.22;5033709;28;20291;-46
2022/09/17 09:35:41;;;;;;;14.93;2.80;;;;;;;14.03;85.24;100210.25;5039710;28;20194;-45
2022/09/17 09:38:31;;;;;;;11.60;2.60;;;;;;;13.93;85.45;100201.91;5028028;28;20219;-45
2022/09/17 09:41:11;;;;;;;12.48;2.25;;;;;;;14.13;85.62;100214.13;5037108;28;20282;-46
2022/09/17 09:43:57;;;;;;;11.43;2.35;;;;;;;13.98;85.48;100202.47;5040560;28;20191;-44
2022/09/17 09:46:57;;;;;;;12.15;3.35;;;;;;;14.46;85.02;100199.47;5036403;28;20187;-48
2022/09/17 09:49:33;;;;;;;16.25;2.85;;;;;;;14.60;83.87;100201.28;5044087;28;20210;-46
2022/09/17 09:52:38;;;;;;;10.50;2.38;;;;;;;14.58;83.50;100211.28;5061191;28;20530;-47
2022/09/17 09:55:22;;;;;;;10.50;2.25;;;;;;;14.91;82.80;100205.53;5039882;28;20640;-48
2022/09/17 09:58:03;;;;;;;12.90;3.15;;;;;;;15.38;81.65;100198.75;5034459;28;20208;-47
2022/09/17 10:00:38;;;;;;;12.82;2.88;;;;;;;15.24;80.95;100206.94;5035389;28;20262;-46
2022/09/17 10:03:31;;;;;;;12.55;2.85;;;;;;;15.11;80.60;100201.50;5050112;28;20568;-49
2022/09/17 10:06:10;;;;;;;13.50;2.60;;;;;;;14.98;81.21;100198.75;5037349;28;20231;-47
2022/09/17 10:08:38;;;;;;;13.00;2.70;;;;;;;15.29;79.78;100195.84;5037352;28;20211;-49
2022/09/17 10:11:13;;;;;;;12.38;2.65;;;;;;;15.48;79.28;100187.31;5035953;28;20223;-53
2022/09/17 10:13:39;;;;;;;11.40;2.30;;;;;;;16.20;77.83;100190.38;5050257;28;20179;-48
2022/09/17 10:16:17;;;;;;;7.53;2.08;;;;;;;16.59;76.30;100183.91;5053919;28;20176;-48
2022/09/17 10:18:44;;;;;;;12.77;2.72;;;;;;;16.51;75.97;100182.75;5038757;28;20203;-47
2022/09/17 10:21:33;;;;;;;11.48;2.65;;;;;;;16.38;76.20;100186.38;5039585;28;20231;-48
2022/09/17 10:23:59;;;;;;;8.75;1.90;;;;;;;16.03;75.80;100184.38;5037676;28;20275;-49
2022/09/17 10:26:31;;;;;;;10.63;2.60;;;;;;;16.30;76.03;100180.63;5037254;28;20582;-50
2022/09/17 10:29:10;;;;;;;11.60;2.17;;;;;;;15.86;75.43;100187.41;5033086;28;20679;-50
2022/09/17 10:31:51;;;;;;;14.25;1.92;;;;;;;15.44;75.69;100181.28;5042471;28;20204;-50
2022/09/17 10:34:22;;;;;;;11.00;2.22;;;;;;;15.33;76.44;100179.31;5041986;28;20206;-49
2022/09/17 10:36:48;;;;;;;9.05;2.55;;;;;;;15.82;76.84;100185.88;5038823;28;20197;-49
2022/09/17 10:39:43;;;;;;;9.80;1.85;;;;;;;16.12;76.78;100187.38;5037502;28;20299;-48
2022/09/17 10:42:16;;;;;;;13.50;2.33;;;;;;;16.29;75.90;100181.63;5034575;28;20176;-47
2022/09/17 10:44:56;;;;;;;12.05;2.40;;;;;;;15.84;75.62;100173.13;5033503;28;20194;-50
2022/09/17 10:47:25;;;;;;;12.57;2.50;;;;;;;15.54;76.57;100187.75;5048001;28;20187;-49
2022/09/17 10:50:01;;;;;;;9.93;2.38;;;;;;;15.40;77.99;100182.47;5041011;28;20248;-49
2022/09/17 10:52:33;;;;;;;6.55;1.60;;;;;;;15.24;78.72;100196.16;5039594;28;20188;-49
2022/09/17 10:55:31;;;;;;;11.50;1.65;;;;;;;14.54;80.09;100189.06;5035453;28;20261;-49
2022/09/17 10:58:07;;;;;;;11.98;1.65;;;;;;;13.97;79.99;100194.47;5033885;28;20729;-48
2022/09/17 11:01:01;;;;;;;6.13;1.23;;;;;;;13.89;83.50;100194.97;5061098;28;20187;-50
2022/09/17 11:03:58;;;;;;;9.25;1.20;;;;;;;13.56;86.34;100187.16;5043449;28;20257;-50
2022/09/17 11:06:42;;;;;;;4.43;1.27;;;;;;;13.64;90.05;100189.34;5056492;28;20268;-47
2022/09/17 11:09:36;;;;;;;10.20;1.45;;;;;;;13.53;92.67;100193.56;5038273;28;20239;-48
2022/09/17 11:12:10;;;;;;;8.15;1.33;;;;;;;13.65;94.88;100191.97;5035849;28;20559;-48
2022/09/17 11:14:57;;;;;;;3.05;1.10;;;;;;;13.78;96.82;100198.31;5045034;28;20194;-50
2022/09/17 11:17:50;;;;;;;9.95;1.65;;;;;;;13.71;97.42;100196.97;5036351;28;20199;-50
2022/09/17 11:20:29;;;;;;;10.50;1.60;;;;;;;13.72;97.97;100201.38;5042813;28;20199;-50
2022/09/17 11:23:21;;;;;;;8.35;1.90;;;;;;;13.83;99.75;100200.72;5045836;28;20195;-50
2022/09/17 11:25:57;;;;;;;10.07;2.30;;;;;;;13.80;100.00;100204.47;5033425;28;20192;-50
2022/09/17 11:28:57;;;;;;;15.52;3.38;;;;;;;14.01;99.99;100196.00;5049330;28;20225;-48
2022/09/17 11:31:58;;;;;;;12.45;2.83;;;;;;;14.24;100.00;100199.97;5036767;28;20224;-48
2022/09/17 11:34:41;;;;;;;13.73;2.60;;;;;;;13.96;100.00;100198.13;5015003;28;20231;-51
2022/09/17 11:37:24;;;;;;;8.98;2.25;;;;;;;14.42;100.00;100204.16;5036680;28;20184;-51